Richmond, Ohio
Current Conditions -  °F | °C
As of 8:53 AM on Wednesday 28 Jan 2015 (Local Time) from KHLG Reporting Station
Overcast Overcast  
Wind Chill:   Ceiling: 1100
Heat Index: 13°   Visibility: 10mi
Dew Point:   Wind: 9mph
Humidity: 84%   Direction: 260°W
Pressure: 30.32"   Gusts: NA
Location:  40.43°N, 80.77°W
Report Text: KHLG 281353Z 26008KT 10SM OVC011 M11/M13 A3032 RMK AO2 SLP292 T11061128
Loading
Personal Weather Stations






























Interactive Weather Map New forecast layout! Learn more

10-Day Weather Forecast

Advertisements
Track Severe Weather on mobile